Time;durP1;ratioP1;P1;durP2;ratioP2;P2;SDS_P1;SDS_P2;PMS_P1;PMS_P2;Temp;Humidity;BMP_temperature;BMP_pressure;BME280_temperature;BME280_humidity;BME280_pressure;Samples;Min_cycle;Max_cycle;Signal;HPM_P1;HPM_P2
2023/05/01 00:00:32;;;;;;;5.80;4.07;;;;;;;10.88;100.00;100353.13;5012196;28;20038;-77
2023/05/01 00:02:58;;;;;;;6.97;4.05;;;;;;;11.13;100.00;100411.72;5022862;28;22084;-75
2023/05/01 00:05:23;;;;;;;8.05;3.75;;;;;;;10.54;100.00;100295.47;5016703;28;20064;-75
2023/05/01 00:07:49;;;;;;;5.85;3.80;;;;;;;10.99;100.00;100396.00;5036606;28;20057;-78
2023/05/01 00:10:15;;;;;;;6.45;3.90;;;;;;;10.26;100.00;100284.13;5046317;28;20428;-78
2023/05/01 00:12:40;;;;;;;5.03;3.15;;;;;;;10.28;100.00;100285.00;5033053;28;20094;-77
2023/05/01 00:15:06;;;;;;;6.40;4.25;;;;;;;11.10;100.00;100414.38;5040348;28;20029;-76
2023/05/01 00:17:32;;;;;;;5.95;3.75;;;;;;;10.61;100.00;100333.06;5031959;28;20048;-77
2023/05/01 00:19:58;;;;;;;6.13;3.80;;;;;;;11.01;100.00;100411.75;5033271;28;20045;-76
2023/05/01 00:22:23;;;;;;;4.88;3.33;;;;;;;11.12;100.00;100423.09;5042427;28;20037;-77
2023/05/01 00:24:49;;;;;;;5.30;3.35;;;;;;;10.40;100.00;100292.88;5031765;28;20405;-75
2023/05/01 00:27:14;;;;;;;6.45;3.42;;;;;;;10.66;100.00;100341.81;5050228;28;20052;-78
2023/05/01 00:29:41;;;;;;;5.10;3.30;;;;;;;10.47;100.00;100297.22;5050125;28;20071;-76
2023/05/01 00:32:06;;;;;;;6.28;4.22;;;;;;;10.24;100.00;100276.25;5036707;28;20042;-76
2023/05/01 00:34:32;;;;;;;5.88;4.63;;;;;;;10.56;100.00;100319.97;5035672;28;20753;-76
2023/05/01 00:36:58;;;;;;;6.90;4.38;;;;;;;10.26;100.00;100265.75;5026995;28;20493;-77
2023/05/01 00:39:23;;;;;;;9.20;4.60;;;;;;;11.24;100.00;100422.19;5046775;28;20040;-76
2023/05/01 00:41:49;;;;;;;7.70;4.20;;;;;;;10.75;100.00;100326.91;5055752;28;20929;-78
2023/05/01 00:44:15;;;;;;;3.72;2.83;;;;;;;10.63;100.00;100320.78;5060723;28;20152;-79
2023/05/01 00:46:42;;;;;;;9.35;5.03;;;;;;;11.16;100.00;100427.47;5048329;28;20567;-75
2023/05/01 00:49:08;;;;;;;6.05;4.15;;;;;;;10.76;100.00;100410.00;5048943;28;20519;-77
2023/05/01 00:51:34;;;;;;;6.45;4.55;;;;;;;10.34;100.00;100337.44;5049870;28;20029;-77
2023/05/01 00:54:00;;;;;;;7.68;4.25;;;;;;;10.31;100.00;100288.50;5049494;28;20080;-78
2023/05/01 00:56:26;;;;;;;5.47;3.72;;;;;;;11.08;100.00;100411.72;5049437;28;20472;-78
2023/05/01 00:58:52;;;;;;;6.53;3.97;;;;;;;10.82;100.00;100417.03;5049416;28;20036;-76
2023/05/01 01:01:21;;;;;;;6.28;4.22;;;;;;;10.73;100.00;100399.53;5047071;28;20132;-77
2023/05/01 01:03:47;;;;;;;6.05;4.57;;;;;;;10.82;100.00;100408.28;5043866;28;20030;-76
2023/05/01 01:06:22;;;;;;;8.48;5.22;;;;;;;10.67;100.00;100382.91;5040766;28;20078;-76
2023/05/01 01:08:58;;;;;;;6.28;4.50;;;;;;;10.98;100.00;100436.25;5048528;28;20139;-77
2023/05/01 01:11:53;;;;;;;11.90;5.88;;;;;;;11.01;100.00;100438.88;5048819;28;20127;-77
2023/05/01 01:14:58;;;;;;;9.13;5.30;;;;;;;11.33;100.00;100444.06;5044214;28;20131;-76
2023/05/01 01:17:55;;;;;;;7.68;4.75;;;;;;;11.41;100.00;100457.19;5045359;28;20053;-77
2023/05/01 01:21:00;;;;;;;5.80;3.97;;;;;;;11.26;100.00;100428.31;5049105;28;20535;-77
2023/05/01 01:23:31;;;;;;;6.35;4.30;;;;;;;11.53;100.00;100462.38;5047261;28;20047;-78
2023/05/01 01:26:38;;;;;;;6.47;4.72;;;;;;;11.54;100.00;100466.78;5048601;28;20041;-77
2023/05/01 01:29:20;;;;;;;10.20;5.25;;;;;;;11.43;100.00;100492.22;5030660;28;20061;-77
2023/05/01 01:31:52;;;;;;;8.00;4.55;;;;;;;11.17;100.00;100482.63;5037224;28;20409;-77
2023/05/01 01:34:31;;;;;;;7.85;4.85;;;;;;;11.19;100.00;100466.84;5033580;28;20085;-77
2023/05/01 01:37:18;;;;;;;8.93;4.85;;;;;;;11.19;100.00;100467.75;5048011;28;20033;-77
2023/05/01 01:40:10;;;;;;;5.40;3.92;;;;;;;11.24;100.00;100475.59;5028562;28;20099;-78
2023/05/01 01:42:41;;;;;;;6.55;4.70;;;;;;;11.18;100.00;100465.97;5024796;28;20034;-79
2023/05/01 01:45:14;;;;;;;7.10;4.95;;;;;;;11.25;100.00;100479.97;5047563;28;20140;-79
2023/05/01 01:47:41;;;;;;;7.55;5.28;;;;;;;10.38;100.00;100343.59;5032136;28;20072;-79
2023/05/01 01:50:09;;;;;;;9.10;5.63;;;;;;;10.44;100.00;100359.31;5034636;28;20045;-79
2023/05/01 01:52:36;;;;;;;8.50;5.30;;;;;;;10.48;100.00;100354.06;5032457;28;20623;-79
2023/05/01 01:55:06;;;;;;;10.13;5.22;;;;;;;10.54;100.00;100366.31;5031754;28;20044;-77
2023/05/01 01:57:33;;;;;;;7.45;5.35;;;;;;;11.03;100.00;100452.88;5034678;28;20034;-76
2023/05/01 01:59:59;;;;;;;5.97;4.50;;;;;;;11.12;100.00;100457.22;5029079;28;20076;-76
2023/05/01 02:02:26;;;;;;;11.80;5.90;;;;;;;10.51;100.00;100347.94;5030281;28;20045;-76
2023/05/01 02:04:52;;;;;;;6.93;4.80;;;;;;;10.35;100.00;100319.09;5025201;28;20045;-77
2023/05/01 02:07:19;;;;;;;7.35;5.13;;;;;;;11.06;100.00;100445.00;5028234;28;20132;-75
2023/05/01 02:09:47;;;;;;;7.35;4.43;;;;;;;11.13;100.00;100448.47;5028512;28;20556;-75
2023/05/01 02:12:15;;;;;;;8.07;4.97;;;;;;;11.13;100.00;100440.59;5033184;28;20033;-77
2023/05/01 02:14:42;;;;;;;7.65;5.03;;;;;;;11.08;100.00;100445.00;5030929;28;20041;-75
2023/05/01 02:17:09;;;;;;;10.02;4.53;;;;;;;11.09;100.00;100433.59;5037983;28;20045;-77
2023/05/01 02:19:40;;;;;;;5.35;3.45;;;;;;;10.63;100.00;100368.94;5035327;28;20053;-77
2023/05/01 02:22:07;;;;;;;6.80;4.60;;;;;;;10.96;100.00;100407.38;5032271;28;20079;-78
2023/05/01 02:24:34;;;;;;;6.97;5.40;;;;;;;10.39;100.00;100329.59;5027839;28;20041;-76
2023/05/01 02:27:10;;;;;;;6.35;4.00;;;;;;;10.53;100.00;100354.91;5036781;28;20049;-77
2023/05/01 02:29:35;;;;;;;6.80;5.03;;;;;;;11.36;100.00;100486.09;5032819;28;20041;-76
2023/05/01 02:32:01;;;;;;;8.50;4.90;;;;;;;11.39;100.00;100495.72;5038663;28;20520;-75
2023/05/01 02:34:26;;;;;;;6.38;4.00;;;;;;;11.28;100.00;100479.94;5019790;28;20041;-75
2023/05/01 02:36:52;;;;;;;7.00;4.80;;;;;;;11.30;100.00;100451.06;5024512;28;20040;-74
2023/05/01 02:39:18;;;;;;;6.53;4.15;;;;;;;11.39;100.00;100437.91;5028221;28;20044;-77
2023/05/01 02:41:44;;;;;;;6.68;5.03;;;;;;;11.66;100.00;100465.88;5031613;28;20056;-76
2023/05/01 02:44:11;;;;;;;7.50;4.18;;;;;;;11.77;100.00;100476.31;5036508;28;20083;-74
2023/05/01 02:46:41;;;;;;;6.03;5.22;;;;;;;11.08;100.00;100359.22;5029470;28;20092;-75
2023/05/01 02:49:08;;;;;;;10.95;5.35;;;;;;;11.75;100.00;100465.84;5030438;28;20539;-75
2023/05/01 02:51:35;;;;;;;7.32;4.25;;;;;;;11.45;100.00;100419.50;5035701;28;20033;-75
2023/05/01 02:54:02;;;;;;;6.85;3.75;;;;;;;10.53;100.00;100255.22;5027948;28;20045;-76
2023/05/01 02:56:28;;;;;;;8.95;5.53;;;;;;;11.79;100.00;100464.91;5036241;28;20198;-76
2023/05/01 02:58:54;;;;;;;7.82;4.68;;;;;;;11.83;100.00;100457.91;5037088;28;20057;-74
2023/05/01 03:01:20;;;;;;;8.60;5.05;;;;;;;11.71;100.00;100468.47;5045270;28;20449;-75
2023/05/01 03:03:46;;;;;;;7.88;4.32;;;;;;;11.23;100.00;100383.66;5041422;28;20110;-77
2023/05/01 03:06:13;;;;;;;9.93;5.63;;;;;;;10.92;100.00;100305.00;5062596;28;20032;-75
2023/05/01 03:08:39;;;;;;;6.57;4.90;;;;;;;11.68;100.00;100445.69;5046683;28;20053;-77
2023/05/01 03:11:07;;;;;;;5.50;3.00;;;;;;;10.41;100.00;100223.78;5046522;28;20099;-76
2023/05/01 03:13:34;;;;;;;7.07;4.55;;;;;;;11.04;100.00;100344.34;5046810;28;20049;-75
2023/05/01 03:16:00;;;;;;;7.20;5.00;;;;;;;11.82;100.00;100474.53;5046922;28;20500;-77
2023/05/01 03:18:25;;;;;;;5.68;4.45;;;;;;;11.06;100.00;100350.47;5045843;28;20041;-77
2023/05/01 03:20:57;;;;;;;7.97;6.82;;;;;;;11.73;100.00;100471.94;5047074;28;20037;-77
2023/05/01 03:23:23;;;;;;;7.68;5.18;;;;;;;11.79;100.00;100478.06;5047102;28;20041;-78
2023/05/01 03:25:49;;;;;;;8.05;5.05;;;;;;;11.32;100.00;100397.66;5037392;28;20083;-78
2023/05/01 03:28:15;;;;;;;11.02;5.47;;;;;;;11.78;100.00;100468.44;5027742;28;20041;-77
2023/05/01 03:30:41;;;;;;;11.00;5.22;;;;;;;10.95;100.00;100347.84;5024931;28;20393;-76
2023/05/01 03:33:07;;;;;;;8.75;5.40;;;;;;;11.77;100.00;100500.84;5030700;28;20060;-77
2023/05/01 03:35:34;;;;;;;5.93;4.45;;;;;;;11.04;100.00;100398.59;5026340;28;20129;-75
2023/05/01 03:38:00;;;;;;;7.65;5.20;;;;;;;11.04;100.00;100438.00;5033551;28;20049;-77
2023/05/01 03:40:25;;;;;;;7.93;4.93;;;;;;;11.50;100.00;100514.09;5027627;28;20040;-76
2023/05/01 03:42:50;;;;;;;6.85;4.10;;;;;;;11.49;100.00;100507.94;5027366;28;20026;-77
2023/05/01 03:45:16;;;;;;;8.85;5.72;;;;;;;11.34;100.00;100522.00;5047595;28;20385;-76
2023/05/01 03:47:41;;;;;;;10.00;4.57;;;;;;;11.35;100.00;100497.44;5046194;28;20155;-76
2023/05/01 03:50:07;;;;;;;8.82;4.90;;;;;;;9.90;100.00;100299.84;5046883;28;20086;-77
2023/05/01 03:52:33;;;;;;;8.73;5.78;;;;;;;11.08;100.00;100521.16;5046740;28;20041;-78
2023/05/01 03:54:59;;;;;;;5.80;4.82;;;;;;;10.35;100.00;100399.53;5048928;28;20029;-77
2023/05/01 03:57:25;;;;;;;7.57;5.38;;;;;;;10.10;100.00;100351.41;5051345;28;20063;-78
2023/05/01 03:59:51;;;;;;;6.90;5.00;;;;;;;10.77;100.00;100464.28;5050298;28;20045;-77
2023/05/01 04:02:17;;;;;;;6.63;5.28;;;;;;;10.25;100.00;100376.75;5046560;28;20056;-77
2023/05/01 04:04:43;;;;;;;9.60;5.82;;;;;;;10.32;100.00;100391.66;5046603;28;20049;-77
2023/05/01 04:07:09;;;;;;;8.90;5.80;;;;;;;10.34;100.00;100405.63;5050534;28;20142;-78
2023/05/01 04:09:34;;;;;;;12.68;5.10;;;;;;;10.96;100.00;100525.53;5050702;28;20552;-77
2023/05/01 04:12:01;;;;;;;5.93;4.90;;;;;;;10.68;100.00;100503.63;5033396;28;20123;-82
2023/05/01 04:14:26;;;;;;;8.15;5.28;;;;;;;10.92;100.00;100549.16;5053972;28;20048;-77
2023/05/01 04:16:52;;;;;;;8.27;5.15;;;;;;;10.89;100.00;100534.28;5046708;28;20041;-78
2023/05/01 04:19:17;;;;;;;7.75;5.05;;;;;;;10.30;100.00;100406.50;5031829;28;20386;-75
2023/05/01 04:21:43;;;;;;;6.95;5.13;;;;;;;10.45;100.00;100437.13;5035492;28;20037;-81
2023/05/01 04:24:08;;;;;;;8.48;5.97;;;;;;;10.87;100.00;100533.38;5037774;28;20043;-76
2023/05/01 04:26:34;;;;;;;8.95;5.20;;;;;;;9.77;100.00;100360.09;5034782;28;20072;-76
2023/05/01 04:29:00;;;;;;;11.38;5.90;;;;;;;10.18;100.00;100440.56;5033620;28;20056;-77
2023/05/01 04:31:25;;;;;;;7.90;5.53;;;;;;;10.16;100.00;100443.19;5029900;28;20085;-79
2023/05/01 04:33:51;;;;;;;8.43;6.15;;;;;;;10.81;100.00;100564.00;5027306;28;20113;-75
2023/05/01 04:36:17;;;;;;;9.55;5.00;;;;;;;10.91;100.00;100621.78;5046804;28;20051;-76
2023/05/01 04:38:43;;;;;;;7.07;4.63;;;;;;;10.67;100.00;100604.22;5034727;28;20045;-76
2023/05/01 04:41:08;;;;;;;7.55;4.70;;;;;;;10.35;100.00;100552.53;5045680;28;20052;-76
2023/05/01 04:43:34;;;;;;;7.05;4.70;;;;;;;10.90;100.00;100627.03;5049894;28;20052;-75
2023/05/01 04:46:00;;;;;;;8.48;4.28;;;;;;;10.93;100.00;100624.41;5032009;28;20052;-77
2023/05/01 04:48:25;;;;;;;11.35;5.47;;;;;;;11.28;100.00;100631.44;5030067;28;20738;-82
2023/05/01 04:50:50;;;;;;;7.15;4.80;;;;;;;10.61;100.00;100532.50;5029340;28;20420;-80
2023/05/01 04:53:16;;;;;;;7.53;4.15;;;;;;;10.78;100.00;100560.50;5030564;28;20041;-78
2023/05/01 04:55:42;;;;;;;6.82;3.75;;;;;;;11.59;100.00;100682.28;5035805;28;20040;-79
2023/05/01 04:58:08;;;;;;;5.55;3.80;;;;;;;10.89;100.00;100541.28;5042833;28;20038;-75
2023/05/01 05:00:33;;;;;;;6.18;4.60;;;;;;;11.55;100.00;100631.44;5028834;28;20037;-82
2023/05/01 05:02:59;;;;;;;5.55;3.15;;;;;;;12.12;100.00;100706.78;5035249;28;20079;-78
2023/05/01 05:05:24;;;;;;;4.55;2.88;;;;;;;11.51;100.00;100582.38;5024878;28;20057;-77
2023/05/01 05:07:50;;;;;;;7.13;3.33;;;;;;;12.33;100.00;100722.53;5034271;28;20493;-75
2023/05/01 05:10:15;;;;;;;5.03;3.33;;;;;;;12.34;100.00;100707.63;5038480;28;20178;-76
2023/05/01 05:12:41;;;;;;;5.45;3.30;;;;;;;12.60;100.00;100761.09;5057764;28;20033;-81
2023/05/01 05:15:07;;;;;;;5.00;3.00;;;;;;;12.43;100.00;100703.22;5030102;28;20511;-78
2023/05/01 05:17:32;;;;;;;7.18;3.47;;;;;;;12.26;100.00;100660.28;5036780;28;20125;-77
2023/05/01 05:19:57;;;;;;;4.60;2.78;;;;;;;12.88;100.00;100671.44;5044534;28;20048;-75
2023/05/01 05:22:24;;;;;;;4.47;3.03;;;;;;;14.35;100.00;100798.72;5056020;28;20045;-81
2023/05/01 05:25:02;;;;;;;3.92;2.28;;;;;;;14.62;100.00;100802.03;5048572;28;20485;-79
2023/05/01 05:27:28;;;;;;;10.02;3.00;;;;;;;15.89;100.00;100802.16;5048423;28;20074;-79
2023/05/01 05:29:54;;;;;;;11.43;3.50;;;;;;;15.91;100.00;100835.66;5047694;28;20301;-78
2023/05/01 05:32:19;;;;;;;4.30;2.30;;;;;;;16.55;100.00;100836.38;5034728;28;20132;-77
2023/05/01 05:34:46;;;;;;;5.93;3.63;;;;;;;16.59;100.00;100723.25;5033939;28;20052;-78
2023/05/01 05:37:11;;;;;;;4.95;2.70;;;;;;;17.87;100.00;100838.16;5052324;28;20485;-77
2023/05/01 05:39:37;;;;;;;6.20;3.28;;;;;;;15.98;100.00;100691.72;5036093;28;20033;-78
2023/05/01 05:42:02;;;;;;;5.88;3.35;;;;;;;17.08;100.00;100773.50;5031202;28;20044;-77
2023/05/01 05:44:28;;;;;;;5.22;3.15;;;;;;;17.09;100.00;100838.03;5039299;28;20781;-77
2023/05/01 05:46:53;;;;;;;5.28;3.33;;;;;;;17.21;100.00;100824.53;5030974;28;20127;-77
2023/05/01 05:49:19;;;;;;;4.60;3.22;;;;;;;18.35;98.94;100848.50;5027603;28;20056;-78
2023/05/01 05:51:45;;;;;;;5.30;2.72;;;;;;;17.43;100.00;100830.25;5028151;28;20041;-78
2023/05/01 05:54:11;;;;;;;3.60;2.08;;;;;;;18.28;96.11;100775.16;5028281;28;20068;-77
2023/05/01 05:56:36;;;;;;;4.97;3.03;;;;;;;19.15;90.13;100823.34;5015287;28;20501;-77
2023/05/01 05:59:02;;;;;;;5.93;3.40;;;;;;;19.60;84.62;100859.28;5048968;28;20065;-78
2023/05/01 06:01:27;;;;;;;3.53;2.08;;;;;;;18.98;82.62;100861.03;5038895;28;20026;-76
2023/05/01 06:03:53;;;;;;;7.47;3.92;;;;;;;19.30;78.36;100848.63;5027707;28;20103;-77
2023/05/01 06:06:19;;;;;;;3.58;2.83;;;;;;;17.92;84.59;100857.50;5050593;28;20544;-75
2023/05/01 06:08:45;;;;;;;3.38;2.22;;;;;;;19.04;84.22;100748.28;5034594;28;20661;-76
2023/05/01 06:11:12;;;;;;;8.40;2.90;;;;;;;18.97;77.69;100754.72;5039153;28;20056;-78
2023/05/01 06:13:37;;;;;;;4.95;3.03;;;;;;;19.46;74.79;100869.47;5048359;28;20094;-77
2023/05/01 06:16:03;;;;;;;6.28;3.90;;;;;;;20.07;76.43;100870.28;5049509;28;20427;-77
2023/05/01 06:18:29;;;;;;;4.43;2.92;;;;;;;20.10;76.38;100855.97;5047478;28;20032;-78
2023/05/01 06:20:55;;;;;;;9.82;3.65;;;;;;;18.42;76.69;100860.72;5045356;28;20136;-76
2023/05/01 06:23:20;;;;;;;11.75;4.07;;;;;;;17.83;83.09;100770.97;5049210;28;20268;-81
2023/05/01 06:25:47;;;;;;;5.55;3.42;;;;;;;19.82;83.37;100881.69;5046296;28;20064;-77
2023/05/01 06:28:13;;;;;;;4.65;2.75;;;;;;;19.56;88.02;100737.81;5048023;28;20133;-77
2023/05/01 06:30:38;;;;;;;6.63;3.17;;;;;;;20.58;84.40;100871.28;5039614;28;20123;-80
2023/05/01 06:33:04;;;;;;;5.85;2.92;;;;;;;20.50;76.45;100855.50;5027643;28;20057;-76
2023/05/01 06:35:29;;;;;;;6.00;2.45;;;;;;;20.62;76.58;100884.44;5040379;28;20572;-77
2023/05/01 06:37:55;;;;;;;4.13;2.58;;;;;;;20.52;79.73;100876.81;5046362;28;20049;-77
2023/05/01 06:40:20;;;;;;;4.65;2.72;;;;;;;19.49;75.66;100787.72;5030274;28;20048;-80
2023/05/01 06:42:46;;;;;;;5.75;3.25;;;;;;;20.37;79.04;100881.72;5027478;28;20477;-76
2023/05/01 06:45:11;;;;;;;11.85;3.47;;;;;;;19.85;79.45;100765.31;5048158;28;20369;-75
2023/05/01 06:47:37;;;;;;;6.30;3.42;;;;;;;19.10;87.13;100864.28;5049482;28;20083;-77
2023/05/01 06:50:03;;;;;;;3.67;2.53;;;;;;;19.66;84.97;100892.81;5038032;28;20053;-77
2023/05/01 06:52:29;;;;;;;5.88;3.05;;;;;;;19.26;88.14;100801.72;5032949;28;20531;-78
2023/05/01 06:54:54;;;;;;;4.90;3.22;;;;;;;19.46;87.82;100866.81;5030338;28;20045;-75
2023/05/01 06:57:20;;;;;;;5.63;2.92;;;;;;;19.52;84.79;100890.56;5035871;28;20042;-76
2023/05/01 06:59:45;;;;;;;4.10;2.53;;;;;;;19.29;81.63;100877.91;5027318;28;20045;-77
2023/05/01 07:02:11;;;;;;;4.60;2.63;;;;;;;18.06;83.01;100798.75;5029055;28;20474;-77
2023/05/01 07:04:36;;;;;;;5.38;3.53;;;;;;;17.88;85.48;100800.94;5017139;28;20089;-76
2023/05/01 07:07:02;;;;;;;4.45;3.28;;;;;;;18.22;87.94;100778.00;5028181;28;20048;-76
2023/05/01 07:09:27;;;;;;;5.13;3.53;;;;;;;18.23;87.93;100801.84;5051813;28;20083;-76
2023/05/01 07:11:55;;;;;;;5.18;2.88;;;;;;;18.07;83.87;100827.91;5026982;28;20033;-76
2023/05/01 07:14:21;;;;;;;3.50;2.22;;;;;;;17.25;85.91;100802.31;5010974;28;20050;-78
2023/05/01 07:16:47;;;;;;;5.45;3.22;;;;;;;17.35;83.67;100792.41;5038807;28;20042;-79
2023/05/01 07:19:12;;;;;;;4.43;2.63;;;;;;;17.59;83.88;100933.41;5031348;28;20041;-77
2023/05/01 07:21:39;;;;;;;3.80;2.33;;;;;;;17.56;83.53;100929.06;5035219;28;20033;-76
2023/05/01 07:24:05;;;;;;;6.10;3.17;;;;;;;17.11;89.33;100921.06;5026989;28;20063;-77
2023/05/01 07:26:31;;;;;;;5.00;2.40;;;;;;;17.72;84.50;100916.31;5032504;28;20053;-77
2023/05/01 07:28:56;;;;;;;5.10;2.70;;;;;;;17.11;86.09;100861.88;5031888;28;20060;-77
2023/05/01 07:31:22;;;;;;;3.53;2.40;;;;;;;17.33;83.51;100907.41;5030284;28;20516;-78
2023/05/01 07:33:47;;;;;;;3.92;2.58;;;;;;;16.58;82.69;100796.56;5030626;28;20068;-77
2023/05/01 07:36:13;;;;;;;4.82;2.95;;;;;;;17.09;87.09;100937.03;5022813;28;20060;-76
2023/05/01 07:38:39;;;;;;;5.80;2.80;;;;;;;16.18;86.37;100762.00;5044807;28;20124;-77
2023/05/01 07:41:05;;;;;;;4.63;2.70;;;;;;;17.47;84.99;100937.19;5040071;28;20061;-78
2023/05/01 07:43:30;;;;;;;4.95;3.38;;;;;;;16.82;87.38;100832.38;5029165;28;20041;-79
2023/05/01 07:46:00;;;;;;;5.18;2.97;;;;;;;17.34;88.54;100957.78;5031102;28;20037;-80
2023/05/01 07:48:27;;;;;;;7.00;2.80;;;;;;;17.01;89.88;100826.72;5025943;28;20033;-78
2023/05/01 07:50:53;;;;;;;9.32;3.08;;;;;;;17.88;86.15;100936.34;5029317;28;20056;-78
2023/05/01 07:53:23;;;;;;;4.57;3.00;;;;;;;17.38;86.20;100824.16;5029483;28;20783;-78
2023/05/01 07:55:49;;;;;;;5.63;3.58;;;;;;;18.22;84.05;100970.13;5035191;28;20045;-76
2023/05/01 07:58:16;;;;;;;7.93;3.80;;;;;;;17.64;84.90;100889.94;5050876;28;20036;-78
2023/05/01 08:00:43;;;;;;;5.82;3.95;;;;;;;17.97;86.96;100951.22;5045987;28;20032;-76
2023/05/01 08:03:09;;;;;;;7.53;4.07;;;;;;;17.53;89.18;100883.97;5033955;28;20991;-71
2023/05/01 08:05:34;;;;;;;5.95;3.20;;;;;;;18.08;84.25;100964.25;5040945;28;20053;-70
2023/05/01 08:08:00;;;;;;;5.40;2.80;;;;;;;17.85;84.73;100939.06;5045880;28;20049;-71
2023/05/01 08:10:27;;;;;;;5.70;3.55;;;;;;;17.93;86.07;100942.44;5047599;28;20075;-71
2023/05/01 08:12:52;;;;;;;7.07;2.25;;;;;;;18.10;86.51;100947.38;5044826;28;20029;-70
2023/05/01 08:15:19;;;;;;;4.55;2.88;;;;;;;17.33;83.85;100859.66;5045574;28;20028;-70
2023/05/01 08:17:45;;;;;;;8.23;3.10;;;;;;;18.08;84.50;100927.94;5052301;28;20837;-71
2023/05/01 08:20:11;;;;;;;8.38;3.63;;;;;;;17.63;85.51;100874.03;5059982;28;20048;-71
2023/05/01 08:22:37;;;;;;;4.32;2.83;;;;;;;18.04;82.56;100881.13;5044961;28;20041;-71
2023/05/01 08:25:04;;;;;;;5.68;3.40;;;;;;;17.16;95.98;100940.44;5057169;28;20079;-69
2023/05/01 08:27:29;;;;;;;5.75;3.40;;;;;;;16.66;98.59;100821.13;5046347;28;20033;-71
2023/05/01 08:29:54;;;;;;;4.72;2.65;;;;;;;17.23;96.23;100873.13;5047938;28;20405;-72
2023/05/01 08:32:20;;;;;;;4.93;3.25;;;;;;;18.51;90.81;100988.03;5051994;28;20049;-71
2023/05/01 08:34:46;;;;;;;4.38;2.85;;;;;;;18.08;83.53;100927.06;5052197;28;20705;-71
2023/05/01 08:37:11;;;;;;;5.78;3.53;;;;;;;17.78;86.15;100976.38;5050032;28;20100;-72
2023/05/01 08:39:37;;;;;;;5.07;3.50;;;;;;;17.80;86.56;100874.56;5028656;28;20014;-70
2023/05/01 08:42:02;;;;;;;6.43;3.05;;;;;;;18.11;84.13;100903.09;5029166;28;20046;-70
2023/05/01 08:44:30;;;;;;;6.63;3.28;;;;;;;19.08;80.35;100961.84;5025906;28;20460;-71
2023/05/01 08:47:04;;;;;;;4.50;2.75;;;;;;;19.00;83.49;100996.66;5029906;28;20372;-70
2023/05/01 08:49:35;;;;;;;5.75;3.15;;;;;;;18.83;79.50;100986.44;5035171;28;20151;-70
2023/05/01 08:52:02;;;;;;;8.68;3.33;;;;;;;19.21;78.84;100903.88;5031335;28;20052;-71
2023/05/01 08:54:31;;;;;;;7.38;5.65;;;;;;;18.88;76.63;100859.53;5029951;28;20043;-71
2023/05/01 08:57:05;;;;;;;6.18;3.65;;;;;;;19.80;68.99;100962.53;5049879;28;20128;-71
2023/05/01 08:59:33;;;;;;;5.05;3.22;;;;;;;19.75;66.57;100885.44;5033986;28;20462;-71
2023/05/01 09:02:00;;;;;;;5.53;3.90;;;;;;;19.39;72.66;101001.84;5033094;28;20051;-70
2023/05/01 09:04:31;;;;;;;4.18;2.55;;;;;;;19.77;66.77;100989.28;5033503;28;20091;-70
2023/05/01 09:07:01;;;;;;;5.03;2.13;;;;;;;19.73;75.33;100975.16;5048417;28;20079;-72
2023/05/01 09:09:27;;;;;;;5.18;3.75;;;;;;;20.35;65.21;100971.53;5053319;28;20049;-71
2023/05/01 09:11:59;;;;;;;5.55;2.83;;;;;;;20.00;60.71;100882.03;5048890;28;20515;-70
2023/05/01 09:14:25;;;;;;;3.78;2.33;;;;;;;20.45;67.05;100972.97;5048479;28;20135;-71
2023/05/01 09:16:51;;;;;;;4.63;2.88;;;;;;;19.55;73.37;100980.97;5048801;28;20040;-70
2023/05/01 09:19:18;;;;;;;5.65;2.53;;;;;;;20.69;69.14;100958.94;5048694;28;20443;-69
2023/05/01 09:21:43;;;;;;;3.15;1.92;;;;;;;19.27;61.27;100986.19;5048760;28;20072;-73
2023/05/01 09:24:09;;;;;;;3.65;1.52;;;;;;;20.24;60.52;100958.53;5047422;28;20442;-72
2023/05/01 09:26:39;;;;;;;4.65;2.20;;;;;;;21.34;58.79;100966.47;5048157;28;20052;-72
2023/05/01 09:29:05;;;;;;;2.95;1.65;;;;;;;21.08;58.82;100873.97;5037174;28;20049;-70
2023/05/01 09:31:31;;;;;;;3.13;1.80;;;;;;;22.05;56.16;100958.50;5035280;28;20036;-71
2023/05/01 09:33:57;;;;;;;3.00;1.70;;;;;;;22.49;53.27;100986.19;5045974;28;20028;-70
2023/05/01 09:36:24;;;;;;;6.22;2.08;;;;;;;22.00;52.70;100905.22;5048846;28;20029;-71
2023/05/01 09:38:50;;;;;;;4.35;1.95;;;;;;;21.87;56.05;100871.94;5044824;28;20135;-70
2023/05/01 09:41:16;;;;;;;4.60;2.45;;;;;;;23.35;55.55;100963.84;5047771;28;20519;-72
2023/05/01 09:43:53;;;;;;;3.30;1.65;;;;;;;23.25;50.85;100890.22;5046605;28;20117;-71
2023/05/01 09:46:20;;;;;;;3.53;2.17;;;;;;;22.39;52.15;100861.81;5041184;28;20048;-71
2023/05/01 09:48:59;;;;;;;3.08;1.80;;;;;;;23.51;51.07;100947.09;5048081;28;20040;-71
2023/05/01 09:51:27;;;;;;;3.85;1.50;;;;;;;22.60;48.63;100950.13;5033339;28;20033;-71
2023/05/01 09:53:58;;;;;;;3.33;1.73;;;;;;;23.51;46.71;100947.09;5029893;28;20045;-70
2023/05/01 09:56:28;;;;;;;4.28;2.05;;;;;;;22.46;46.53;100980.09;5035139;28;20067;-75
2023/05/01 09:58:55;;;;;;;2.83;2.20;;;;;;;22.04;48.57;100951.44;5030517;28;20555;-73
2023/05/01 10:01:41;;;;;;;2.42;1.45;;;;;;;23.62;48.97;100931.38;5024915;28;20040;-71
2023/05/01 10:04:10;;;;;;;3.53;1.77;;;;;;;22.60;48.90;100964.34;5027920;28;20052;-71
2023/05/01 10:06:38;;;;;;;3.13;1.45;;;;;;;23.92;47.53;100955.06;5023357;28;20042;-71
2023/05/01 10:09:16;;;;;;;3.90;1.65;;;;;;;23.45;47.36;100932.16;5038555;28;20813;-70
2023/05/01 10:11:52;;;;;;;4.72;2.15;;;;;;;22.07;47.41;100976.22;5036544;28;20048;-71
2023/05/01 10:14:19;;;;;;;2.97;1.63;;;;;;;22.94;48.84;100958.47;5033912;28;20111;-70
2023/05/01 10:16:45;;;;;;;2.90;1.95;;;;;;;23.63;47.78;100867.97;5038075;28;20140;-71
2023/05/01 10:19:13;;;;;;;2.60;1.95;;;;;;;23.20;46.87;100966.31;5031280;28;20136;-71
2023/05/01 10:21:39;;;;;;;3.08;1.85;;;;;;;23.34;49.13;100959.44;5039991;28;20032;-72
2023/05/01 10:24:06;;;;;;;3.53;1.73;;;;;;;22.59;46.14;100909.09;5032520;28;20053;-72
2023/05/01 10:26:33;;;;;;;3.13;1.70;;;;;;;21.07;47.78;100974.53;5040706;28;20090;-71
2023/05/01 10:29:00;;;;;;;3.55;2.00;;;;;;;20.74;49.72;100951.63;5043816;28;20589;-73
2023/05/01 10:31:26;;;;;;;2.45;1.35;;;;;;;21.74;46.78;100977.53;5033560;28;20489;-72
2023/05/01 10:33:53;;;;;;;4.47;1.60;;;;;;;21.84;51.14;100915.63;5031459;28;20033;-70
2023/05/01 10:36:31;;;;;;;3.40;1.40;;;;;;;21.47;46.67;100873.47;5039111;28;20136;-72
2023/05/01 10:38:57;;;;;;;3.08;1.73;;;;;;;21.44;46.33;100874.44;5019597;28;20037;-70
2023/05/01 10:42:02;;;;;;;2.42;1.70;;;;;;;23.97;45.53;100955.72;5027788;28;20761;-69
2023/05/01 10:44:28;;;;;;;1.88;1.05;;;;;;;23.57;43.89;100958.38;5024534;28;20062;-70
2023/05/01 10:46:54;;;;;;;5.45;1.48;;;;;;;22.52;42.37;100855.03;5027549;28;20111;-71
2023/05/01 10:49:20;;;;;;;3.47;2.25;;;;;;;22.90;44.68;100938.13;5032270;28;20699;-71
2023/05/01 10:51:58;;;;;;;4.03;1.92;;;;;;;24.21;43.67;100956.38;5036608;28;20445;-71
2023/05/01 10:54:31;;;;;;;3.92;2.35;;;;;;;21.88;44.17;100838.91;5036042;28;20025;-70
2023/05/01 10:56:58;;;;;;;;;;;;;;;22.83;45.58;100947.34;5042772;28;20041;-71
2023/05/01 10:59:24;;;;;;;3.58;2.40;;;;;;;21.43;45.64;100862.03;5032236;28;19963;-70
2023/05/01 11:01:51;;;;;;;3.40;1.55;;;;;;;21.20;45.96;100870.00;5027233;28;20044;-71
2023/05/01 11:04:22;;;;;;;1.50;1.02;;;;;;;21.02;46.77;100965.78;5025615;28;20469;-71
2023/05/01 11:07:10;;;;;;;3.15;2.13;;;;;;;21.93;47.21;100960.72;5027354;28;20116;-71
2023/05/01 11:09:42;;;;;;;2.65;1.77;;;;;;;21.08;47.71;100951.38;5029256;28;20041;-71
2023/05/01 11:12:13;;;;;;;2.90;1.53;;;;;;;21.75;48.47;100920.47;5029130;28;20107;-72
2023/05/01 11:15:01;;;;;;;4.88;2.15;;;;;;;22.57;46.25;100960.94;5030373;28;20041;-71
2023/05/01 11:17:39;;;;;;;2.60;1.35;;;;;;;22.85;46.45;100942.81;5044153;28;20132;-73
2023/05/01 11:20:06;;;;;;;3.10;1.95;;;;;;;22.29;45.97;100928.16;5039386;28;20067;-71
2023/05/01 11:22:32;;;;;;;4.93;1.98;;;;;;;21.49;47.21;100860.91;5056052;28;20503;-72
2023/05/01 11:24:59;;;;;;;2.25;1.45;;;;;;;22.21;46.52;100958.81;5054353;28;20045;-72